Current | Forecast
Updated: 1:30 AM CEST on October 17, 2017
Observed at Santander Airport, Spain
Temperature 17°C
Humidity 94%
Dew Point 16°C
Wind East at 7 km/h
Pressure 1020 hPa (Steady)
Conditions Clear
Visibility 10.0 kilometers
UV N/A
Clouds
Yesterday's Maximum 28°C
Yesterday's Minimum 18°C approx.
Yesterday's Cooling Degree Days 8 approx.
Sunrise8:30 AM CEST
Sunset7:27 PM CEST
Moon Rise5:47 AM CEST
Moon Set6:43 PM CEST
Moon PhaseMoon Phase
Waning Crescent
Raw METARMETAR LEXJ 162330Z AUTO 10004KT 070V130 9999 NCD 17/16 Q1020


Monday
. High: 69° F.
Tuesday
. High: 73° F.
Wednesday
. High: 59° F.
Thursday
. High: 62° F.
Friday
. High: 71° F.
Saturday
. High: 69° F.
Sunday
. High: 66° F.
Monday
. High: 73° F.

Click here for Marine Information
Scientific forecaster discussion (NWS)

Units: English | Metric

Find the Weather for any City, State or Zipcode, or Country:

U.S. State List | Severe Weather | Tropical Storms | Ski Conditions
United States | Canada | Central America | South America | Asia | Europe | Australia | Africa | Islands

Weather Underground

© Copyright 2017
The Weather Company, LLC